Gerhard Schulte — VRBY5 — position and weather

sailwx.info

Track history (hours):
 
Tides and Currents Weather Stations Pressure Air Temp Water Temp Dewpoint Dewpoint Depression Visibility Wind Speed Wind Dir Waves Ship Positions

Gerhard Schulte

Last reported at 2017-Nov-24 23:56 UTC. Time now 2017-Nov-25 00:16 UTC.
Position S 33°55' E 018°27'.

Length 231 m; draft 12.7 m.

Type: Ship (hazmat cat A). MMSI: 477214400.

Date/timePositionNaut miles runAvg speedWind from/ knotsBaromVisibWave heightAir tempDewpointWater temp
2017-Nov-24 23:56S 33°55' E 018°27'0 0.0
2017-Nov-24 23:26S 33°55' E 018°27'0 0.0
2017-Nov-24 22:59S 33°55' E 018°27'0 0.0
2017-Nov-24 22:29S 33°55' E 018°27'0 0.0
2017-Nov-24 21:59S 33°55' E 018°27'0 0.0
2017-Nov-24 21:23S 33°55' E 018°27'0 0.0
2017-Nov-24 20:59S 33°55' E 018°27'0 0.0
2017-Nov-24 20:29S 33°55' E 018°27'0 0.0
2017-Nov-24 19:59S 33°55' E 018°27'0 0.0
2017-Nov-24 19:29S 33°55' E 018°27'0 0.0
2017-Nov-24 18:56S 33°55' E 018°27'0 0.0
2017-Nov-24 18:29S 33°55' E 018°27'0 0.0
2017-Nov-24 17:56S 33°55' E 018°27'0 0.0
2017-Nov-24 17:29S 33°55' E 018°27'0 0.0
2017-Nov-24 16:59S 33°55' E 018°27'0 0.0
2017-Nov-24 16:29S 33°55' E 018°27'0 0.0
2017-Nov-24 15:59S 33°55' E 018°27'0 0.0
2017-Nov-24 15:29S 33°55' E 018°27'0 0.0
2017-Nov-24 14:59S 33°55' E 018°27'0 0.0
2017-Nov-24 14:29S 33°55' E 018°27'0 0.0
2017-Nov-24 13:59S 33°55' E 018°27'1 1.6
2017-Nov-24 13:30S 33°54' E 018°26'2 4.9
2017-Nov-24 13:00S 33°52' E 018°24'1 1.9
2017-Nov-24 12:30S 33°52' E 018°23'611.9
2017-Nov-24 12:00S 33°52' E 018°16'3 5.9
2017-Nov-24 11:26S 33°55' E 018°13'1 0.9
2017-Nov-24 10:43S 33°55' E 018°13'2 8.0
2017-Nov-24 10:25S 33°54' E 018°15'  
2017-Nov-15 18:52S 24°45' W 045°45'2516.3
2017-Nov-15 17:21S 24°32' W 046°09'715.8
2017-Nov-15 16:56S 24°28' W 046°14'716.4
2017-Nov-15 16:30S 24°23' W 046°19'816.0
2017-Nov-15 16:01S 24°15' W 046°22'816.3
2017-Nov-15 15:30S 24°07' W 046°23'611.7
2017-Nov-15 15:00S 24°01' W 046°21'4 7.2
2017-Nov-15 14:26S 23°59' W 046°17'  
Track history (hours):
 
Tides and Currents Weather Stations Pressure Air Temp Water Temp Dewpoint Dewpoint Depression Visibility Wind Speed Wind Dir Waves Ship Positions

Gerhard Schulte

Last reported at 2017-Nov-24 23:56 UTC. Time now 2017-Nov-25 00:16 UTC.
Position S 33°55' E 018°27'.

Length 231 m; draft 12.7 m.

Type: Ship (hazmat cat A). MMSI: 477214400.

Date/timePositionNaut miles runAvg speedWind from/ knotsBaromVisibWave heightAir tempDewpointWater temp
2017-Nov-24 23:56S 33°55' E 018°27'0 0.0
2017-Nov-24 23:26S 33°55' E 018°27'0 0.0
2017-Nov-24 22:59S 33°55' E 018°27'0 0.0
2017-Nov-24 22:29S 33°55' E 018°27'0 0.0
2017-Nov-24 21:59S 33°55' E 018°27'0 0.0
2017-Nov-24 21:23S 33°55' E 018°27'0 0.0
2017-Nov-24 20:59S 33°55' E 018°27'0 0.0
2017-Nov-24 20:29S 33°55' E 018°27'0 0.0
2017-Nov-24 19:59S 33°55' E 018°27'0 0.0
2017-Nov-24 19:29S 33°55' E 018°27'0 0.0
2017-Nov-24 18:56S 33°55' E 018°27'0 0.0
2017-Nov-24 18:29S 33°55' E 018°27'0 0.0
2017-Nov-24 17:56S 33°55' E 018°27'0 0.0
2017-Nov-24 17:29S 33°55' E 018°27'0 0.0
2017-Nov-24 16:59S 33°55' E 018°27'0 0.0
2017-Nov-24 16:29S 33°55' E 018°27'0 0.0
2017-Nov-24 15:59S 33°55' E 018°27'0 0.0
2017-Nov-24 15:29S 33°55' E 018°27'0 0.0
2017-Nov-24 14:59S 33°55' E 018°27'0 0.0
2017-Nov-24 14:29S 33°55' E 018°27'0 0.0
2017-Nov-24 13:59S 33°55' E 018°27'1 1.6
2017-Nov-24 13:30S 33°54' E 018°26'2 4.9
2017-Nov-24 13:00S 33°52' E 018°24'1 1.9
2017-Nov-24 12:30S 33°52' E 018°23'611.9
2017-Nov-24 12:00S 33°52' E 018°16'3 5.9
2017-Nov-24 11:26S 33°55' E 018°13'1 0.9
2017-Nov-24 10:43S 33°55' E 018°13'2 8.0
2017-Nov-24 10:25S 33°54' E 018°15'  
2017-Nov-15 18:52S 24°45' W 045°45'2516.3
2017-Nov-15 17:21S 24°32' W 046°09'715.8
2017-Nov-15 16:56S 24°28' W 046°14'716.4
2017-Nov-15 16:30S 24°23' W 046°19'816.0
2017-Nov-15 16:01S 24°15' W 046°22'816.3
2017-Nov-15 15:30S 24°07' W 046°23'611.7
2017-Nov-15 15:00S 24°01' W 046°21'4 7.2
2017-Nov-15 14:26S 23°59' W 046°17'  

Dump ship's entire track history